sensor_id;sensor_type;location;lat;lon;timestamp;temperature;humidity
31759;DHT22;36334;51.366;0.020;2022-10-04T00:02:20;13.40;99.90
31759;DHT22;36334;51.366;0.020;2022-10-04T00:05:12;13.40;99.90
31759;DHT22;36334;51.366;0.020;2022-10-04T00:08:47;13.50;99.90
31759;DHT22;36334;51.366;0.020;2022-10-04T00:11:34;13.60;99.90
31759;DHT22;36334;51.366;0.020;2022-10-04T00:14:34;13.60;99.90
31759;DHT22;36334;51.366;0.020;2022-10-04T00:17:26;13.70;99.90
31759;DHT22;36334;51.366;0.020;2022-10-04T00:23:39;13.90;99.90
31759;DHT22;36334;51.366;0.020;2022-10-04T00:29:40;14.00;99.90
31759;DHT22;36334;51.366;0.020;2022-10-04T00:32:30;14.00;99.90
31759;DHT22;36334;51.366;0.020;2022-10-04T00:38:14;14.10;99.90
31759;DHT22;36334;51.366;0.020;2022-10-04T00:41:04;14.10;99.90
31759;DHT22;36334;51.366;0.020;2022-10-04T00:43:53;14.20;99.90
31759;DHT22;36334;51.366;0.020;2022-10-04T00:46:40;14.20;99.90
31759;DHT22;36334;51.366;0.020;2022-10-04T00:49:36;14.30;99.90
31759;DHT22;36334;51.366;0.020;2022-10-04T00:52:34;14.30;99.90
31759;DHT22;36334;51.366;0.020;2022-10-04T00:58:28;14.40;99.90
31759;DHT22;36334;51.366;0.020;2022-10-04T01:01:20;14.40;99.90
31759;DHT22;36334;51.366;0.020;2022-10-04T01:04:22;14.40;99.90
31759;DHT22;36334;51.366;0.020;2022-10-04T01:07:14;14.40;99.90
31759;DHT22;36334;51.366;0.020;2022-10-04T01:10:10;14.50;99.90
31759;DHT22;36334;51.366;0.020;2022-10-04T01:13:19;14.50;99.90
31759;DHT22;36334;51.366;0.020;2022-10-04T01:16:24;14.50;99.90
31759;DHT22;36334;51.366;0.020;2022-10-04T01:22:28;14.60;99.90
31759;DHT22;36334;51.366;0.020;2022-10-04T01:25:45;14.60;99.90
31759;DHT22;36334;51.366;0.020;2022-10-04T01:28:33;14.60;99.90
31759;DHT22;36334;51.366;0.020;2022-10-04T01:31:20;14.70;99.90
31759;DHT22;36334;51.366;0.020;2022-10-04T01:34:07;14.70;99.90
31759;DHT22;36334;51.366;0.020;2022-10-04T01:36:56;14.70;99.90
31759;DHT22;36334;51.366;0.020;2022-10-04T01:39:46;14.70;99.90
31759;DHT22;36334;51.366;0.020;2022-10-04T01:42:37;14.70;99.90
31759;DHT22;36334;51.366;0.020;2022-10-04T01:45:41;14.70;99.90
31759;DHT22;36334;51.366;0.020;2022-10-04T01:48:35;14.70;99.90
31759;DHT22;36334;51.366;0.020;2022-10-04T01:51:50;14.70;99.90
31759;DHT22;36334;51.366;0.020;2022-10-04T01:54:43;14.80;99.90
31759;DHT22;36334;51.366;0.020;2022-10-04T01:57:40;14.80;99.90
31759;DHT22;36334;51.366;0.020;2022-10-04T02:00:27;14.80;99.90
31759;DHT22;36334;51.366;0.020;2022-10-04T02:03:31;14.90;99.90
31759;DHT22;36334;51.366;0.020;2022-10-04T02:06:20;14.80;99.90
31759;DHT22;36334;51.366;0.020;2022-10-04T02:09:16;14.80;99.90
31759;DHT22;36334;51.366;0.020;2022-10-04T02:12:03;14.90;99.90
31759;DHT22;36334;51.366;0.020;2022-10-04T02:14:54;14.90;99.90
31759;DHT22;36334;51.366;0.020;2022-10-04T02:17:42;14.90;99.90
31759;DHT22;36334;51.366;0.020;2022-10-04T02:20:29;14.90;99.90
31759;DHT22;36334;51.366;0.020;2022-10-04T02:23:18;14.90;99.90
31759;DHT22;36334;51.366;0.020;2022-10-04T02:26:05;15.00;99.90
31759;DHT22;36334;51.366;0.020;2022-10-04T02:28:51;15.00;99.90
31759;DHT22;36334;51.366;0.020;2022-10-04T02:31:38;15.00;99.90
31759;DHT22;36334;51.366;0.020;2022-10-04T02:34:45;15.00;99.90
31759;DHT22;36334;51.366;0.020;2022-10-04T02:37:31;15.00;99.90
31759;DHT22;36334;51.366;0.020;2022-10-04T02:40:25;15.00;99.90
31759;DHT22;36334;51.366;0.020;2022-10-04T02:43:24;15.10;99.90
31759;DHT22;36334;51.366;0.020;2022-10-04T02:46:16;15.10;99.90
31759;DHT22;36334;51.366;0.020;2022-10-04T02:49:14;15.10;99.90
31759;DHT22;36334;51.366;0.020;2022-10-04T02:55:18;15.10;99.90
31759;DHT22;36334;51.366;0.020;2022-10-04T02:58:09;15.10;99.90
31759;DHT22;36334;51.366;0.020;2022-10-04T03:01:00;15.10;99.90
31759;DHT22;36334;51.366;0.020;2022-10-04T03:03:47;15.10;99.90
31759;DHT22;36334;51.366;0.020;2022-10-04T03:06:33;15.10;99.90
31759;DHT22;36334;51.366;0.020;2022-10-04T03:09:21;15.10;99.90
31759;DHT22;36334;51.366;0.020;2022-10-04T03:12:14;15.10;99.90
31759;DHT22;36334;51.366;0.020;2022-10-04T03:15:01;15.10;99.90
31759;DHT22;36334;51.366;0.020;2022-10-04T03:17:47;15.10;99.90
31759;DHT22;36334;51.366;0.020;2022-10-04T03:20:37;15.10;99.90
31759;DHT22;36334;51.366;0.020;2022-10-04T03:23:24;15.10;99.90
31759;DHT22;36334;51.366;0.020;2022-10-04T03:29:18;15.10;99.90
31759;DHT22;36334;51.366;0.020;2022-10-04T03:32:06;15.10;99.90
31759;DHT22;36334;51.366;0.020;2022-10-04T03:35:00;15.10;99.90
31759;DHT22;36334;51.366;0.020;2022-10-04T03:37:47;15.20;99.90
31759;DHT22;36334;51.366;0.020;2022-10-04T03:40:35;15.10;99.90
31759;DHT22;36334;51.366;0.020;2022-10-04T03:43:28;15.20;99.90
31759;DHT22;36334;51.366;0.020;2022-10-04T03:46:19;15.20;99.90
31759;DHT22;36334;51.366;0.020;2022-10-04T03:49:12;15.20;99.90
31759;DHT22;36334;51.366;0.020;2022-10-04T03:52:03;15.20;99.90
31759;DHT22;36334;51.366;0.020;2022-10-04T03:54:52;15.20;99.90
31759;DHT22;36334;51.366;0.020;2022-10-04T03:57:40;15.20;99.90
31759;DHT22;36334;51.366;0.020;2022-10-04T04:00:26;15.30;99.90
31759;DHT22;36334;51.366;0.020;2022-10-04T04:03:19;15.30;99.90
31759;DHT22;36334;51.366;0.020;2022-10-04T04:06:14;15.30;99.90
31759;DHT22;36334;51.366;0.020;2022-10-04T04:09:04;15.30;99.90
31759;DHT22;36334;51.366;0.020;2022-10-04T04:11:55;15.30;99.90
31759;DHT22;36334;51.366;0.020;2022-10-04T04:14:44;15.30;99.90
31759;DHT22;36334;51.366;0.020;2022-10-04T04:17:36;15.40;99.90
31759;DHT22;36334;51.366;0.020;2022-10-04T04:20:33;15.40;99.90
31759;DHT22;36334;51.366;0.020;2022-10-04T04:26:28;15.40;99.90
31759;DHT22;36334;51.366;0.020;2022-10-04T04:29:35;15.50;99.90
31759;DHT22;36334;51.366;0.020;2022-10-04T04:32:35;15.50;99.90
31759;DHT22;36334;51.366;0.020;2022-10-04T04:35:32;15.50;99.90
31759;DHT22;36334;51.366;0.020;2022-10-04T04:38:23;15.50;99.90
31759;DHT22;36334;51.366;0.020;2022-10-04T04:41:10;15.50;99.90
31759;DHT22;36334;51.366;0.020;2022-10-04T04:43:57;15.50;99.90
31759;DHT22;36334;51.366;0.020;2022-10-04T04:46:47;15.50;99.90
31759;DHT22;36334;51.366;0.020;2022-10-04T04:49:36;15.60;99.90
31759;DHT22;36334;51.366;0.020;2022-10-04T04:52:27;15.60;99.90
31759;DHT22;36334;51.366;0.020;2022-10-04T04:55:23;15.60;99.90
31759;DHT22;36334;51.366;0.020;2022-10-04T04:58:19;15.60;99.90
31759;DHT22;36334;51.366;0.020;2022-10-04T05:07:03;15.60;99.90
31759;DHT22;36334;51.366;0.020;2022-10-04T05:09:50;15.60;99.90
31759;DHT22;36334;51.366;0.020;2022-10-04T05:12:36;15.60;99.90
31759;DHT22;36334;51.366;0.020;2022-10-04T05:15:21;15.60;99.90
31759;DHT22;36334;51.366;0.020;2022-10-04T05:18:29;15.70;99.90
31759;DHT22;36334;51.366;0.020;2022-10-04T05:21:26;15.60;99.90
31759;DHT22;36334;51.366;0.020;2022-10-04T05:30:51;15.60;99.90
31759;DHT22;36334;51.366;0.020;2022-10-04T05:33:50;15.60;99.90
31759;DHT22;36334;51.366;0.020;2022-10-04T05:40:05;15.60;99.90
31759;DHT22;36334;51.366;0.020;2022-10-04T05:42:52;15.50;99.90
31759;DHT22;36334;51.366;0.020;2022-10-04T05:45:40;15.50;99.90
31759;DHT22;36334;51.366;0.020;2022-10-04T05:48:26;15.50;99.90
31759;DHT22;36334;51.366;0.020;2022-10-04T05:51:27;15.50;99.90
31759;DHT22;36334;51.366;0.020;2022-10-04T05:54:22;15.40;99.90
31759;DHT22;36334;51.366;0.020;2022-10-04T05:57:17;15.30;99.90
31759;DHT22;36334;51.366;0.020;2022-10-04T06:00:20;15.30;99.90
31759;DHT22;36334;51.366;0.020;2022-10-04T06:21:27;15.20;99.90
31759;DHT22;36334;51.366;0.020;2022-10-04T06:24:22;15.20;99.90
31759;DHT22;36334;51.366;0.020;2022-10-04T06:30:17;15.20;99.90
31759;DHT22;36334;51.366;0.020;2022-10-04T06:36:35;15.30;99.90
31759;DHT22;36334;51.366;0.020;2022-10-04T06:39:36;15.30;99.90
31759;DHT22;36334;51.366;0.020;2022-10-04T06:45:48;15.30;99.90
31759;DHT22;36334;51.366;0.020;2022-10-04T06:49:03;15.40;99.90
31759;DHT22;36334;51.366;0.020;2022-10-04T06:52:10;15.40;99.90
31759;DHT22;36334;51.366;0.020;2022-10-04T07:07:28;15.50;99.90
31759;DHT22;36334;51.366;0.020;2022-10-04T07:10:51;15.60;99.90
31759;DHT22;36334;51.366;0.020;2022-10-04T07:13:47;15.60;99.90
31759;DHT22;36334;51.366;0.020;2022-10-04T07:16:43;15.60;99.90
31759;DHT22;36334;51.366;0.020;2022-10-04T07:19:40;15.70;99.90
31759;DHT22;36334;51.366;0.020;2022-10-04T07:22:42;15.70;99.90
31759;DHT22;36334;51.366;0.020;2022-10-04T07:28:56;15.70;99.90
31759;DHT22;36334;51.366;0.020;2022-10-04T07:35:01;15.80;99.90
31759;DHT22;36334;51.366;0.020;2022-10-04T07:38:00;15.80;99.90
31759;DHT22;36334;51.366;0.020;2022-10-04T07:41:06;15.80;99.90
31759;DHT22;36334;51.366;0.020;2022-10-04T07:44:00;15.80;99.90
31759;DHT22;36334;51.366;0.020;2022-10-04T07:49:47;15.90;99.90
31759;DHT22;36334;51.366;0.020;2022-10-04T07:52:48;15.80;99.90
31759;DHT22;36334;51.366;0.020;2022-10-04T07:55:56;15.90;99.90
31759;DHT22;36334;51.366;0.020;2022-10-04T08:04:59;16.10;99.90
31759;DHT22;36334;51.366;0.020;2022-10-04T08:20:57;16.50;99.90
31759;DHT22;36334;51.366;0.020;2022-10-04T08:27:00;16.60;99.90
31759;DHT22;36334;51.366;0.020;2022-10-04T08:52:38;16.80;99.90
31759;DHT22;36334;51.366;0.020;2022-10-04T09:11:55;16.80;99.90
31759;DHT22;36334;51.366;0.020;2022-10-04T09:15:07;16.80;99.90
31759;DHT22;36334;51.366;0.020;2022-10-04T09:18:28;16.70;99.90
31759;DHT22;36334;51.366;0.020;2022-10-04T09:21:40;16.70;99.90
31759;DHT22;36334;51.366;0.020;2022-10-04T09:47:11;16.90;99.90
31759;DHT22;36334;51.366;0.020;2022-10-04T09:50:25;17.00;99.90
31759;DHT22;36334;51.366;0.020;2022-10-04T10:02:49;17.30;99.90
31759;DHT22;36334;51.366;0.020;2022-10-04T10:06:03;17.40;99.90
31759;DHT22;36334;51.366;0.020;2022-10-04T10:34:26;17.50;99.90
31759;DHT22;36334;51.366;0.020;2022-10-04T10:41:07;17.60;99.90
31759;DHT22;36334;51.366;0.020;2022-10-04T10:47:51;17.70;99.90
31759;DHT22;36334;51.366;0.020;2022-10-04T11:00:20;18.10;99.90
31759;DHT22;36334;51.366;0.020;2022-10-04T11:25:29;18.50;99.90
31759;DHT22;36334;51.366;0.020;2022-10-04T11:37:45;18.50;99.90
31759;DHT22;36334;51.366;0.020;2022-10-04T11:40:51;18.50;99.90
31759;DHT22;36334;51.366;0.020;2022-10-04T11:56:28;18.20;99.90
31759;DHT22;36334;51.366;0.020;2022-10-04T11:59:43;18.20;99.90
31759;DHT22;36334;51.366;0.020;2022-10-04T12:09:37;18.30;99.90
31759;DHT22;36334;51.366;0.020;2022-10-04T12:22:37;18.50;99.90
31759;DHT22;36334;51.366;0.020;2022-10-04T12:34:30;18.30;99.90
31759;DHT22;36334;51.366;0.020;2022-10-04T13:08:59;18.00;99.90
31759;DHT22;36334;51.366;0.020;2022-10-04T13:20:40;18.00;99.90
31759;DHT22;36334;51.366;0.020;2022-10-04T13:23:39;17.90;99.90
31759;DHT22;36334;51.366;0.020;2022-10-04T13:26:46;17.90;99.90
31759;DHT22;36334;51.366;0.020;2022-10-04T13:32:42;17.90;99.90
31759;DHT22;36334;51.366;0.020;2022-10-04T13:36:21;18.00;99.90
31759;DHT22;36334;51.366;0.020;2022-10-04T13:51:45;18.70;99.90
31759;DHT22;36334;51.366;0.020;2022-10-04T13:59:10;18.80;99.90
31759;DHT22;36334;51.366;0.020;2022-10-04T14:05:31;18.60;99.90
31759;DHT22;36334;51.366;0.020;2022-10-04T14:09:17;18.60;99.90
31759;DHT22;36334;51.366;0.020;2022-10-04T14:15:48;18.60;99.90
31759;DHT22;36334;51.366;0.020;2022-10-04T14:18:47;18.50;99.90
31759;DHT22;36334;51.366;0.020;2022-10-04T14:34:17;18.50;99.90
31759;DHT22;36334;51.366;0.020;2022-10-04T14:43:44;18.50;99.90
31759;DHT22;36334;51.366;0.020;2022-10-04T14:53:09;18.40;99.90
31759;DHT22;36334;51.366;0.020;2022-10-04T14:56:20;18.30;99.90
31759;DHT22;36334;51.366;0.020;2022-10-04T15:05:34;18.10;99.90
31759;DHT22;36334;51.366;0.020;2022-10-04T15:20:45;17.70;99.90
31759;DHT22;36334;51.366;0.020;2022-10-04T15:23:41;17.60;99.90
31759;DHT22;36334;51.366;0.020;2022-10-04T15:29:24;17.60;99.90
31759;DHT22;36334;51.366;0.020;2022-10-04T15:57:48;17.70;99.90
31759;DHT22;36334;51.366;0.020;2022-10-04T16:06:42;17.50;99.90
31759;DHT22;36334;51.366;0.020;2022-10-04T16:09:53;17.50;99.90
31759;DHT22;36334;51.366;0.020;2022-10-04T16:16:17;17.40;99.90
31759;DHT22;36334;51.366;0.020;2022-10-04T16:32:12;17.30;99.90
31759;DHT22;36334;51.366;0.020;2022-10-04T16:35:16;17.20;99.90
31759;DHT22;36334;51.366;0.020;2022-10-04T16:38:14;17.20;99.90
31759;DHT22;36334;51.366;0.020;2022-10-04T16:41:38;17.20;99.90
31759;DHT22;36334;51.366;0.020;2022-10-04T16:44:51;17.20;99.90
31759;DHT22;36334;51.366;0.020;2022-10-04T16:47:53;17.20;99.90
31759;DHT22;36334;51.366;0.020;2022-10-04T16:57:12;17.20;99.90
31759;DHT22;36334;51.366;0.020;2022-10-04T17:00:32;17.10;99.90
31759;DHT22;36334;51.366;0.020;2022-10-04T17:03:28;17.10;99.90
31759;DHT22;36334;51.366;0.020;2022-10-04T17:06:27;17.10;99.90
31759;DHT22;36334;51.366;0.020;2022-10-04T17:15:46;17.00;99.90
31759;DHT22;36334;51.366;0.020;2022-10-04T17:22:16;17.00;99.90
31759;DHT22;36334;51.366;0.020;2022-10-04T17:25:25;17.00;99.90
31759;DHT22;36334;51.366;0.020;2022-10-04T17:28:33;16.90;99.90
31759;DHT22;36334;51.366;0.020;2022-10-04T17:49:35;16.70;99.90
31759;DHT22;36334;51.366;0.020;2022-10-04T17:52:53;16.70;99.90
31759;DHT22;36334;51.366;0.020;2022-10-04T17:55:59;16.60;99.90
31759;DHT22;36334;51.366;0.020;2022-10-04T17:58:53;16.60;99.90
31759;DHT22;36334;51.366;0.020;2022-10-04T18:01:43;16.60;99.90
31759;DHT22;36334;51.366;0.020;2022-10-04T18:04:33;16.50;99.90
31759;DHT22;36334;51.366;0.020;2022-10-04T18:07:27;16.50;99.90
31759;DHT22;36334;51.366;0.020;2022-10-04T18:10:30;16.40;99.90
31759;DHT22;36334;51.366;0.020;2022-10-04T18:13:54;16.40;99.90
31759;DHT22;36334;51.366;0.020;2022-10-04T18:16:54;16.40;99.90
31759;DHT22;36334;51.366;0.020;2022-10-04T18:22:47;16.30;99.90
31759;DHT22;36334;51.366;0.020;2022-10-04T18:25:34;16.30;99.90
31759;DHT22;36334;51.366;0.020;2022-10-04T18:28:20;16.30;99.90
31759;DHT22;36334;51.366;0.020;2022-10-04T18:37:37;16.30;99.90
31759;DHT22;36334;51.366;0.020;2022-10-04T18:40:34;16.30;99.90
31759;DHT22;36334;51.366;0.020;2022-10-04T18:43:34;16.30;99.90
31759;DHT22;36334;51.366;0.020;2022-10-04T18:46:37;16.30;99.90
31759;DHT22;36334;51.366;0.020;2022-10-04T18:49:26;16.30;99.90
31759;DHT22;36334;51.366;0.020;2022-10-04T18:52:26;16.30;99.90
31759;DHT22;36334;51.366;0.020;2022-10-04T19:17:54;16.20;99.90
31759;DHT22;36334;51.366;0.020;2022-10-04T19:27:22;16.20;99.90
31759;DHT22;36334;51.366;0.020;2022-10-04T19:30:21;16.10;99.90
31759;DHT22;36334;51.366;0.020;2022-10-04T19:37:00;16.10;99.90
31759;DHT22;36334;51.366;0.020;2022-10-04T19:49:24;16.10;99.90
31759;DHT22;36334;51.366;0.020;2022-10-04T19:58:38;16.10;99.90
31759;DHT22;36334;51.366;0.020;2022-10-04T20:01:25;16.10;99.90
31759;DHT22;36334;51.366;0.020;2022-10-04T20:04:16;16.00;99.90
31759;DHT22;36334;51.366;0.020;2022-10-04T20:07:24;16.10;99.90
31759;DHT22;36334;51.366;0.020;2022-10-04T20:10:34;16.00;99.90
31759;DHT22;36334;51.366;0.020;2022-10-04T20:13:22;16.00;99.90
31759;DHT22;36334;51.366;0.020;2022-10-04T20:16:10;16.00;99.90
31759;DHT22;36334;51.366;0.020;2022-10-04T20:18:58;16.00;99.90
31759;DHT22;36334;51.366;0.020;2022-10-04T20:21:44;16.00;99.90
31759;DHT22;36334;51.366;0.020;2022-10-04T20:30:15;16.00;99.90
31759;DHT22;36334;51.366;0.020;2022-10-04T20:33:01;16.00;99.90
31759;DHT22;36334;51.366;0.020;2022-10-04T20:42:33;16.10;99.90
31759;DHT22;36334;51.366;0.020;2022-10-04T20:45:21;16.20;99.90
31759;DHT22;36334;51.366;0.020;2022-10-04T20:48:28;16.20;99.90
31759;DHT22;36334;51.366;0.020;2022-10-04T20:51:16;16.20;99.90
31759;DHT22;36334;51.366;0.020;2022-10-04T20:54:15;16.20;99.90
31759;DHT22;36334;51.366;0.020;2022-10-04T20:57:02;16.30;99.90
31759;DHT22;36334;51.366;0.020;2022-10-04T20:59:52;16.20;99.90
31759;DHT22;36334;51.366;0.020;2022-10-04T21:02:40;16.20;99.90
31759;DHT22;36334;51.366;0.020;2022-10-04T21:05:26;16.20;99.90
31759;DHT22;36334;51.366;0.020;2022-10-04T21:08:13;16.20;99.90
31759;DHT22;36334;51.366;0.020;2022-10-04T21:11:05;16.30;99.90
31759;DHT22;36334;51.366;0.020;2022-10-04T21:13:54;16.30;99.90
31759;DHT22;36334;51.366;0.020;2022-10-04T21:16:45;16.30;99.90
31759;DHT22;36334;51.366;0.020;2022-10-04T21:25:28;16.30;99.90
31759;DHT22;36334;51.366;0.020;2022-10-04T21:28:41;16.30;99.90
31759;DHT22;36334;51.366;0.020;2022-10-04T21:31:28;16.30;99.90
31759;DHT22;36334;51.366;0.020;2022-10-04T21:34:14;16.30;99.90
31759;DHT22;36334;51.366;0.020;2022-10-04T21:37:20;16.30;99.90
31759;DHT22;36334;51.366;0.020;2022-10-04T21:40:07;16.30;99.90
31759;DHT22;36334;51.366;0.020;2022-10-04T21:42:53;16.40;99.90
31759;DHT22;36334;51.366;0.020;2022-10-04T21:45:39;16.40;99.90
31759;DHT22;36334;51.366;0.020;2022-10-04T21:48:25;16.40;99.90
31759;DHT22;36334;51.366;0.020;2022-10-04T21:51:12;16.40;99.90
31759;DHT22;36334;51.366;0.020;2022-10-04T21:53:58;16.40;99.90
31759;DHT22;36334;51.366;0.020;2022-10-04T21:56:44;16.40;99.90
31759;DHT22;36334;51.366;0.020;2022-10-04T21:59:31;16.40;99.90
31759;DHT22;36334;51.366;0.020;2022-10-04T22:02:17;16.40;99.90
31759;DHT22;36334;51.366;0.020;2022-10-04T22:05:03;16.40;99.90
31759;DHT22;36334;51.366;0.020;2022-10-04T22:07:49;16.40;99.90
31759;DHT22;36334;51.366;0.020;2022-10-04T22:10:35;16.50;99.90
31759;DHT22;36334;51.366;0.020;2022-10-04T22:13:21;16.50;99.90
31759;DHT22;36334;51.366;0.020;2022-10-04T22:16:07;16.40;99.90
31759;DHT22;36334;51.366;0.020;2022-10-04T22:18:54;16.50;99.90
31759;DHT22;36334;51.366;0.020;2022-10-04T22:21:40;16.40;99.90
31759;DHT22;36334;51.366;0.020;2022-10-04T22:24:26;16.50;99.90
31759;DHT22;36334;51.366;0.020;2022-10-04T22:27:14;16.50;99.90
31759;DHT22;36334;51.366;0.020;2022-10-04T22:30:00;16.50;99.90
31759;DHT22;36334;51.366;0.020;2022-10-04T22:32:47;16.50;99.90
31759;DHT22;36334;51.366;0.020;2022-10-04T22:35:33;16.50;99.90
31759;DHT22;36334;51.366;0.020;2022-10-04T22:38:21;16.50;99.90
31759;DHT22;36334;51.366;0.020;2022-10-04T22:41:11;16.50;99.90
31759;DHT22;36334;51.366;0.020;2022-10-04T22:44:05;16.50;99.90
31759;DHT22;36334;51.366;0.020;2022-10-04T22:46:54;16.40;99.90
31759;DHT22;36334;51.366;0.020;2022-10-04T22:49:43;16.40;99.90
31759;DHT22;36334;51.366;0.020;2022-10-04T22:52:29;16.40;99.90
31759;DHT22;36334;51.366;0.020;2022-10-04T22:55:16;16.50;99.90
31759;DHT22;36334;51.366;0.020;2022-10-04T22:58:03;16.40;99.90
31759;DHT22;36334;51.366;0.020;2022-10-04T23:00:49;16.40;99.90
31759;DHT22;36334;51.366;0.020;2022-10-04T23:03:35;16.50;99.90
31759;DHT22;36334;51.366;0.020;2022-10-04T23:06:23;16.50;99.90
31759;DHT22;36334;51.366;0.020;2022-10-04T23:09:09;16.40;99.90
31759;DHT22;36334;51.366;0.020;2022-10-04T23:11:55;16.50;99.90
31759;DHT22;36334;51.366;0.020;2022-10-04T23:14:41;16.50;99.90
31759;DHT22;36334;51.366;0.020;2022-10-04T23:17:35;16.50;99.90
31759;DHT22;36334;51.366;0.020;2022-10-04T23:20:23;16.50;99.90
31759;DHT22;36334;51.366;0.020;2022-10-04T23:23:13;16.50;99.90
31759;DHT22;36334;51.366;0.020;2022-10-04T23:26:12;16.50;99.90
31759;DHT22;36334;51.366;0.020;2022-10-04T23:28:59;16.50;99.90
31759;DHT22;36334;51.366;0.020;2022-10-04T23:31:45;16.50;99.90
31759;DHT22;36334;51.366;0.020;2022-10-04T23:34:36;16.50;99.90
31759;DHT22;36334;51.366;0.020;2022-10-04T23:37:25;16.50;99.90
31759;DHT22;36334;51.366;0.020;2022-10-04T23:40:14;16.50;99.90
31759;DHT22;36334;51.366;0.020;2022-10-04T23:43:03;16.50;99.90
31759;DHT22;36334;51.366;0.020;2022-10-04T23:45:52;16.50;99.90
31759;DHT22;36334;51.366;0.020;2022-10-04T23:48:41;16.50;99.90
31759;DHT22;36334;51.366;0.020;2022-10-04T23:51:27;16.50;99.90
31759;DHT22;36334;51.366;0.020;2022-10-04T23:54:17;16.50;99.90
31759;DHT22;36334;51.366;0.020;2022-10-04T23:57:08;16.50;99.90
31759;DHT22;36334;51.366;0.020;2022-10-04T23:59:57;16.50;99.90
